createdAt,value
2023-05-07T00:00:29.538Z,2.70
2023-05-07T00:01:33.353Z,2.20
2023-05-07T00:02:36.922Z,2.35
2023-05-07T00:03:45.425Z,2.53
2023-05-07T00:04:48.819Z,2.83
2023-05-07T00:05:53.929Z,2.40
2023-05-07T00:06:57.351Z,2.45
2023-05-07T00:08:01.427Z,2.50
2023-05-07T00:09:05.623Z,2.03
2023-05-07T00:10:09.983Z,2.65
2023-05-07T00:11:13.429Z,2.38
2023-05-07T00:12:17.633Z,2.22
2023-05-07T00:13:21.166Z,2.30
2023-05-07T00:14:24.367Z,2.63
2023-05-07T00:15:27.965Z,2.80
2023-05-07T00:16:31.375Z,2.53
2023-05-07T00:17:35.163Z,2.55
2023-05-07T00:18:38.878Z,2.15
2023-05-07T00:19:41.965Z,2.20
2023-05-07T00:20:45.036Z,2.65
2023-05-07T00:21:48.019Z,1.92
2023-05-07T00:22:52.096Z,1.88
2023-05-07T00:23:56.119Z,2.22
2023-05-07T00:25:00.232Z,2.05
2023-05-07T00:26:04.279Z,2.05
2023-05-07T00:27:08.293Z,2.05
2023-05-07T00:28:15.570Z,2.15
2023-05-07T00:29:19.016Z,2.03
2023-05-07T00:30:22.871Z,2.42
2023-05-07T00:31:26.500Z,2.20
2023-05-07T00:32:30.133Z,2.05
2023-05-07T00:33:33.259Z,2.05
2023-05-07T00:34:36.828Z,1.95
2023-05-07T00:35:41.058Z,2.47
2023-05-07T00:36:44.347Z,2.50
2023-05-07T00:37:47.703Z,2.30
2023-05-07T00:38:50.873Z,2.28
2023-05-07T00:39:54.254Z,2.80
2023-05-07T00:40:57.575Z,2.70
2023-05-07T00:42:01.689Z,2.20
2023-05-07T00:43:05.847Z,2.88
2023-05-07T00:44:09.770Z,2.60
2023-05-07T00:45:13.369Z,2.55
2023-05-07T00:46:17.057Z,2.20
2023-05-07T00:47:21.173Z,2.42
2023-05-07T00:48:25.596Z,2.28
2023-05-07T00:49:43.009Z,2.58
2023-05-07T00:50:48.220Z,2.80
2023-05-07T00:51:53.579Z,2.47
2023-05-07T00:52:57.847Z,1.90
2023-05-07T00:54:03.949Z,2.20
2023-05-07T00:55:08.926Z,2.17
2023-05-07T00:56:12.985Z,1.92
2023-05-07T00:57:33.602Z,2.08
2023-05-07T00:58:37.205Z,2.67
2023-05-07T00:59:41.765Z,2.30
2023-05-07T01:00:45.432Z,2.15
2023-05-07T01:01:48.740Z,2.20
2023-05-07T01:02:51.895Z,2.20
2023-05-07T01:03:56.217Z,2.33
2023-05-07T01:05:01.218Z,2.20
2023-05-07T01:06:08.600Z,2.03
2023-05-07T01:07:12.604Z,2.75
2023-05-07T01:08:17.791Z,1.67
2023-05-07T01:09:23.112Z,2.53
2023-05-07T01:10:27.803Z,2.13
2023-05-07T01:11:30.893Z,2.20
2023-05-07T01:12:35.195Z,2.17
2023-05-07T01:13:39.493Z,2.17
2023-05-07T01:14:43.660Z,2.10
2023-05-07T01:15:46.954Z,2.25
2023-05-07T01:16:52.354Z,2.00
2023-05-07T01:17:58.028Z,2.10
2023-05-07T01:19:12.115Z,1.83
2023-05-07T01:20:17.019Z,1.63
2023-05-07T01:21:30.182Z,1.42
2023-05-07T01:22:48.523Z,2.00
2023-05-07T01:23:51.968Z,1.98
2023-05-07T01:24:57.178Z,2.15
2023-05-07T01:26:00.779Z,2.22
2023-05-07T01:27:07.148Z,1.90
2023-05-07T01:28:12.011Z,1.83
2023-05-07T01:29:17.380Z,2.20
2023-05-07T01:30:23.616Z,1.95
2023-05-07T01:31:27.112Z,2.35
2023-05-07T01:32:37.025Z,2.05
2023-05-07T01:33:44.249Z,2.17
2023-05-07T01:34:49.369Z,2.10
2023-05-07T01:35:55.244Z,2.13
2023-05-07T01:37:00.771Z,2.08
2023-05-07T01:38:07.120Z,1.83
2023-05-07T01:39:11.716Z,2.20
2023-05-07T01:40:15.367Z,2.30
2023-05-07T01:41:19.918Z,2.45
2023-05-07T01:42:24.089Z,1.85
2023-05-07T01:43:29.447Z,1.83
2023-05-07T01:44:32.849Z,2.38
2023-05-07T01:45:37.016Z,2.47
2023-05-07T01:46:40.277Z,1.85
2023-05-07T01:47:44.748Z,1.98
2023-05-07T01:48:48.604Z,2.58
2023-05-07T01:49:51.997Z,1.80
2023-05-07T01:50:57.290Z,1.50
2023-05-07T01:52:01.305Z,2.15
2023-05-07T01:53:04.665Z,2.00
2023-05-07T01:54:09.413Z,2.05
2023-05-07T01:55:13.636Z,1.77
2023-05-07T01:56:18.446Z,1.52
2023-05-07T01:57:23.785Z,1.77
2023-05-07T01:58:27.473Z,1.60
2023-05-07T01:59:30.685Z,2.17
2023-05-07T02:00:35.870Z,1.90
2023-05-07T02:01:39.057Z,2.20
2023-05-07T02:02:43.473Z,1.92
2023-05-07T02:03:58.654Z,1.52
2023-05-07T02:05:04.994Z,1.90
2023-05-07T02:06:08.863Z,1.92
2023-05-07T02:07:15.047Z,1.77
2023-05-07T02:08:18.916Z,2.03
2023-05-07T02:09:24.025Z,2.17
2023-05-07T02:10:28.460Z,1.40
2023-05-07T02:11:31.575Z,1.85
2023-05-07T02:12:34.751Z,1.67
2023-05-07T02:13:38.088Z,1.65
2023-05-07T02:14:42.689Z,1.38
2023-05-07T02:15:50.279Z,1.95
2023-05-07T02:16:53.958Z,1.60
2023-05-07T02:18:10.045Z,1.40
2023-05-07T02:19:17.549Z,1.83
2023-05-07T02:20:21.032Z,1.65
2023-05-07T02:21:26.326Z,1.70
2023-05-07T02:22:35.561Z,1.48
2023-05-07T02:23:38.796Z,1.65
2023-05-07T02:24:42.879Z,1.70
2023-05-07T02:25:47.035Z,1.80
2023-05-07T02:26:50.207Z,1.35
2023-05-07T02:27:53.903Z,1.73
2023-05-07T02:29:00.924Z,1.55
2023-05-07T02:30:04.462Z,1.52
2023-05-07T02:31:07.886Z,1.70
2023-05-07T02:32:13.398Z,1.77
2023-05-07T02:33:17.158Z,1.55
2023-05-07T02:34:20.966Z,1.85
2023-05-07T02:35:26.851Z,1.45
2023-05-07T02:36:30.585Z,1.70
2023-05-07T02:37:40.283Z,1.40
2023-05-07T02:38:43.717Z,1.80
2023-05-07T02:39:47.376Z,1.92
2023-05-07T02:40:51.128Z,1.42
2023-05-07T02:41:54.416Z,1.35
2023-05-07T02:42:58.406Z,1.30
2023-05-07T02:44:01.591Z,1.17
2023-05-07T02:45:06.348Z,1.50
2023-05-07T02:46:10.713Z,1.33
2023-05-07T02:47:18.019Z,1.10
2023-05-07T02:48:28.784Z,1.23
2023-05-07T02:49:32.758Z,1.38
2023-05-07T02:50:36.395Z,1.30
2023-05-07T02:51:39.529Z,1.30
2023-05-07T02:52:48.764Z,1.40
2023-05-07T02:53:53.136Z,1.23
2023-05-07T02:54:58.076Z,1.33
2023-05-07T02:56:03.433Z,1.20
2023-05-07T02:57:06.587Z,1.33
2023-05-07T02:58:09.925Z,1.38
2023-05-07T02:59:14.926Z,1.30
2023-05-07T03:00:20.901Z,1.25
2023-05-07T03:01:35.907Z,1.45
2023-05-07T03:02:43.459Z,1.15
2023-05-07T03:03:49.568Z,1.25
2023-05-07T03:04:53.667Z,1.50
2023-05-07T03:05:57.065Z,1.20
2023-05-07T03:07:00.219Z,1.10
2023-05-07T03:08:03.891Z,1.42
2023-05-07T03:09:08.530Z,1.25
2023-05-07T03:10:16.432Z,1.00
2023-05-07T03:11:19.805Z,1.10
2023-05-07T03:12:42.907Z,1.10
2023-05-07T03:13:50.066Z,1.30
2023-05-07T03:14:54.004Z,1.20
2023-05-07T03:15:57.265Z,1.15
2023-05-07T03:17:05.038Z,1.23
2023-05-07T03:18:09.199Z,1.40
2023-05-07T03:19:13.014Z,1.10
2023-05-07T03:20:17.071Z,1.15
2023-05-07T03:21:23.541Z,1.15
2023-05-07T03:22:27.048Z,0.88
2023-05-07T03:23:30.792Z,1.17
2023-05-07T03:24:34.011Z,0.93
2023-05-07T03:25:37.285Z,1.25
2023-05-07T03:26:40.436Z,1.23
2023-05-07T03:27:43.984Z,0.85
2023-05-07T03:28:47.438Z,1.17
2023-05-07T03:29:52.949Z,1.23
2023-05-07T03:30:56.833Z,1.25
2023-05-07T03:32:00.780Z,0.98
2023-05-07T03:33:04.336Z,0.90
2023-05-07T03:34:07.622Z,1.30
2023-05-07T03:35:10.989Z,1.17
2023-05-07T03:36:14.345Z,1.15
2023-05-07T03:37:19.826Z,1.67
2023-05-07T03:38:23.048Z,1.60
2023-05-07T03:39:26.443Z,1.08
2023-05-07T03:40:29.855Z,1.00
2023-05-07T03:41:34.283Z,1.10
2023-05-07T03:42:39.134Z,1.23
2023-05-07T03:43:42.374Z,1.23
2023-05-07T03:44:48.101Z,1.10
2023-05-07T03:45:51.713Z,1.25
2023-05-07T03:47:01.810Z,1.02
2023-05-07T03:48:05.478Z,1.45
2023-05-07T03:49:09.250Z,1.10
2023-05-07T03:50:13.266Z,0.93
2023-05-07T03:51:17.390Z,1.30
2023-05-07T03:52:24.853Z,1.20
2023-05-07T03:53:28.733Z,1.00
2023-05-07T03:54:32.092Z,1.10
2023-05-07T03:55:40.296Z,1.20
2023-05-07T03:56:43.793Z,1.10
2023-05-07T03:57:47.288Z,1.20
2023-05-07T03:58:56.851Z,1.23
2023-05-07T04:00:00.278Z,1.13
2023-05-07T04:01:03.876Z,1.35
2023-05-07T04:02:13.523Z,1.23
2023-05-07T04:03:18.474Z,1.23
2023-05-07T04:04:22.348Z,1.20
2023-05-07T04:05:26.134Z,1.10
2023-05-07T04:06:34.528Z,1.10
2023-05-07T04:07:37.892Z,1.00
2023-05-07T04:08:41.213Z,1.00
2023-05-07T04:09:44.594Z,1.65
2023-05-07T04:10:47.985Z,1.15
2023-05-07T04:11:51.251Z,0.90
2023-05-07T04:12:54.612Z,1.00
2023-05-07T04:13:59.533Z,1.05
2023-05-07T04:15:03.221Z,1.20
2023-05-07T04:16:13.465Z,1.15
2023-05-07T04:17:16.937Z,0.90
2023-05-07T04:18:21.113Z,1.25
2023-05-07T04:19:25.465Z,1.00
2023-05-07T04:20:29.926Z,1.45
2023-05-07T04:21:38.993Z,1.00
2023-05-07T04:22:43.162Z,1.10
2023-05-07T04:23:49.085Z,0.88
2023-05-07T04:24:52.479Z,1.10
2023-05-07T04:26:16.417Z,0.90
2023-05-07T04:27:40.828Z,1.10
2023-05-07T04:29:03.735Z,1.30
2023-05-07T04:30:29.979Z,1.20
2023-05-07T04:31:52.875Z,1.20
2023-05-07T04:33:19.241Z,1.15
2023-05-07T04:34:43.512Z,1.33
2023-05-07T04:36:06.660Z,1.10
2023-05-07T04:37:34.954Z,1.20
2023-05-07T04:38:58.224Z,1.15
2023-05-07T04:40:21.185Z,1.23
2023-05-07T04:41:44.161Z,1.10
2023-05-07T04:43:08.524Z,0.95
2023-05-07T04:44:38.395Z,1.00
2023-05-07T04:46:01.287Z,0.90
2023-05-07T04:47:24.945Z,1.25
2023-05-07T04:48:48.164Z,1.20
2023-05-07T04:50:12.052Z,1.20
2023-05-07T04:51:36.469Z,1.20
2023-05-07T04:52:53.357Z,1.13
2023-05-07T04:53:56.737Z,1.63
2023-05-07T04:55:01.694Z,1.08
2023-05-07T04:56:09.211Z,1.40
2023-05-07T04:57:18.545Z,1.08
2023-05-07T04:58:24.067Z,1.20
2023-05-07T04:59:27.411Z,1.20
2023-05-07T05:00:30.938Z,1.60
2023-05-07T05:01:35.965Z,1.10
2023-05-07T05:02:40.566Z,1.30
2023-05-07T05:03:45.000Z,1.13
2023-05-07T05:04:48.656Z,1.10
2023-05-07T05:05:53.944Z,1.10
2023-05-07T05:06:59.966Z,1.20
2023-05-07T05:08:05.829Z,1.52
2023-05-07T05:09:10.881Z,1.40
2023-05-07T05:10:14.727Z,1.23
2023-05-07T05:11:18.295Z,1.70
2023-05-07T05:12:22.418Z,1.17
2023-05-07T05:13:27.495Z,1.27
2023-05-07T05:14:31.104Z,1.48
2023-05-07T05:15:35.104Z,1.50
2023-05-07T05:16:39.418Z,1.30
2023-05-07T05:17:43.460Z,1.77
2023-05-07T05:18:47.257Z,1.40
2023-05-07T05:19:54.587Z,1.50
2023-05-07T05:20:58.828Z,1.13
2023-05-07T05:22:11.524Z,1.50
2023-05-07T05:23:16.498Z,1.23
2023-05-07T05:24:21.056Z,1.55
2023-05-07T05:25:24.252Z,1.67
2023-05-07T05:26:28.030Z,1.52
2023-05-07T05:27:31.780Z,1.98
2023-05-07T05:28:35.636Z,1.30
2023-05-07T05:29:39.861Z,1.50
2023-05-07T05:30:43.424Z,1.27
2023-05-07T05:31:47.100Z,1.30
2023-05-07T05:32:50.917Z,1.45
2023-05-07T05:33:54.275Z,2.10
2023-05-07T05:34:57.632Z,1.05
2023-05-07T05:36:01.297Z,1.23
2023-05-07T05:37:04.873Z,1.30
2023-05-07T05:38:08.877Z,1.10
2023-05-07T05:39:13.754Z,0.90
2023-05-07T05:40:17.277Z,1.42
2023-05-07T05:41:24.244Z,1.38
2023-05-07T05:42:27.511Z,1.40
2023-05-07T05:43:32.363Z,1.08
2023-05-07T05:44:36.323Z,1.38
2023-05-07T05:45:39.657Z,1.27
2023-05-07T05:46:44.000Z,1.45
2023-05-07T05:47:47.467Z,1.20
2023-05-07T05:48:51.847Z,1.80
2023-05-07T05:49:55.594Z,1.63
2023-05-07T05:50:59.305Z,1.10
2023-05-07T05:52:03.030Z,1.48
2023-05-07T05:53:06.510Z,1.48
2023-05-07T05:54:10.644Z,1.30
2023-05-07T05:55:14.215Z,1.50
2023-05-07T05:56:17.957Z,1.50
2023-05-07T05:57:21.660Z,1.50
2023-05-07T05:58:25.029Z,1.13
2023-05-07T05:59:33.796Z,1.83
2023-05-07T06:00:37.270Z,1.20
2023-05-07T06:01:42.849Z,1.40
2023-05-07T06:02:47.246Z,1.52
2023-05-07T06:03:57.768Z,1.30
2023-05-07T06:05:01.226Z,1.73
2023-05-07T06:06:04.960Z,1.48
2023-05-07T06:07:08.218Z,0.90
2023-05-07T06:08:12.914Z,1.15
2023-05-07T06:09:16.708Z,1.30
2023-05-07T06:10:22.917Z,1.60
2023-05-07T06:11:26.878Z,1.60
2023-05-07T06:12:30.415Z,0.98
2023-05-07T06:13:34.000Z,1.08
2023-05-07T06:14:37.476Z,1.73
2023-05-07T06:15:41.006Z,1.65
2023-05-07T06:16:47.145Z,1.67
2023-05-07T06:17:50.476Z,1.48
2023-05-07T06:18:54.093Z,1.33
2023-05-07T06:19:57.545Z,1.73
2023-05-07T06:21:01.239Z,1.20
2023-05-07T06:22:08.319Z,1.67
2023-05-07T06:23:12.450Z,1.83
2023-05-07T06:24:15.632Z,1.63
2023-05-07T06:25:19.014Z,1.08
2023-05-07T06:26:26.462Z,1.30
2023-05-07T06:27:29.866Z,1.33
2023-05-07T06:28:37.119Z,1.50
2023-05-07T06:29:43.079Z,1.30
2023-05-07T06:30:51.135Z,1.40
2023-05-07T06:31:55.494Z,1.30
2023-05-07T06:32:59.870Z,1.63
2023-05-07T06:34:03.736Z,1.45
2023-05-07T06:35:14.110Z,1.33
2023-05-07T06:36:18.026Z,1.27
2023-05-07T06:37:22.094Z,1.30
2023-05-07T06:38:51.614Z,1.33
2023-05-07T06:39:55.104Z,1.20
2023-05-07T06:40:59.042Z,1.17
2023-05-07T06:42:03.603Z,1.17
2023-05-07T06:43:09.385Z,1.30
2023-05-07T06:44:30.482Z,1.15
2023-05-07T06:45:45.128Z,1.33
2023-05-07T06:46:49.008Z,1.38
2023-05-07T06:47:52.751Z,1.65
2023-05-07T06:48:58.002Z,1.17
2023-05-07T06:50:03.550Z,1.25
2023-05-07T06:51:09.459Z,1.00
2023-05-07T06:52:12.984Z,1.65
2023-05-07T06:53:16.236Z,1.60
2023-05-07T06:54:19.927Z,2.33
2023-05-07T06:55:23.703Z,2.38
2023-05-07T06:56:28.997Z,1.38
2023-05-07T06:57:33.021Z,1.13
2023-05-07T06:58:36.400Z,1.35
2023-05-07T06:59:39.623Z,1.10
2023-05-07T07:00:43.010Z,1.05
2023-05-07T07:01:46.394Z,1.08
2023-05-07T07:02:49.831Z,0.95
2023-05-07T07:03:55.123Z,1.05
2023-05-07T07:04:59.579Z,1.10
2023-05-07T07:06:03.337Z,1.10
2023-05-07T07:07:10.990Z,1.23
2023-05-07T07:08:19.426Z,1.48
2023-05-07T07:09:24.046Z,1.20
2023-05-07T07:10:28.548Z,0.98
2023-05-07T07:11:33.053Z,1.38
2023-05-07T07:12:36.870Z,1.00
2023-05-07T07:13:41.383Z,1.08
2023-05-07T07:14:45.136Z,1.05
2023-05-07T07:15:49.729Z,1.00
2023-05-07T07:16:54.430Z,1.10
2023-05-07T07:17:58.959Z,1.25
2023-05-07T07:19:02.167Z,1.13
2023-05-07T07:20:06.621Z,1.15
2023-05-07T07:21:10.858Z,0.93
2023-05-07T07:22:14.482Z,1.40
2023-05-07T07:23:19.279Z,1.17
2023-05-07T07:24:22.710Z,1.17
2023-05-07T07:25:30.088Z,0.90
2023-05-07T07:26:34.042Z,1.00
2023-05-07T07:27:38.216Z,0.98
2023-05-07T07:28:48.808Z,1.00
2023-05-07T07:29:55.990Z,1.08
2023-05-07T07:31:00.369Z,0.98
2023-05-07T07:32:03.989Z,1.10
2023-05-07T07:33:08.692Z,0.98
2023-05-07T07:34:14.523Z,1.00
2023-05-07T07:35:18.548Z,0.98
2023-05-07T07:36:23.783Z,1.40
2023-05-07T07:37:30.966Z,1.02
2023-05-07T07:38:35.294Z,1.23
2023-05-07T07:39:42.153Z,1.00
2023-05-07T07:40:47.122Z,1.50
2023-05-07T07:41:50.393Z,1.77
2023-05-07T07:42:55.647Z,0.98
2023-05-07T07:43:59.493Z,0.80
2023-05-07T07:45:02.767Z,1.00
2023-05-07T07:46:10.154Z,1.20
2023-05-07T07:47:14.031Z,1.02
2023-05-07T07:48:18.543Z,1.20
2023-05-07T07:49:22.677Z,1.55
2023-05-07T07:51:36.487Z,1.10
2023-05-07T07:52:40.374Z,1.10
2023-05-07T07:53:44.611Z,1.40
2023-05-07T07:54:47.777Z,0.80
2023-05-07T07:55:51.006Z,1.10
2023-05-07T07:56:57.018Z,0.90
2023-05-07T07:58:00.742Z,1.00
2023-05-07T07:59:03.994Z,0.93
2023-05-07T08:00:09.436Z,0.93
2023-05-07T08:01:20.050Z,0.80
2023-05-07T08:02:24.292Z,1.10
2023-05-07T08:03:29.117Z,1.05
2023-05-07T08:04:35.551Z,1.00
2023-05-07T08:05:41.678Z,1.27
2023-05-07T08:06:45.106Z,1.17
2023-05-07T08:07:53.091Z,1.10
2023-05-07T08:09:00.226Z,0.90
2023-05-07T08:10:04.550Z,1.23
2023-05-07T08:11:10.614Z,1.40
2023-05-07T08:12:18.258Z,0.95
2023-05-07T08:13:21.613Z,0.90
2023-05-07T08:14:25.208Z,0.98
2023-05-07T08:15:28.373Z,0.85
2023-05-07T08:16:31.998Z,1.02
2023-05-07T08:17:36.920Z,1.08
2023-05-07T08:18:42.656Z,1.00
2023-05-07T08:19:46.124Z,0.98
2023-05-07T08:20:51.081Z,1.15
2023-05-07T08:21:58.213Z,1.10
2023-05-07T08:23:02.828Z,0.80
2023-05-07T08:24:06.612Z,0.88
2023-05-07T08:25:11.049Z,0.80
2023-05-07T08:26:21.600Z,0.93
2023-05-07T08:27:26.132Z,0.60
2023-05-07T08:28:37.077Z,1.13
2023-05-07T08:29:48.461Z,0.95
2023-05-07T08:30:53.777Z,0.85
2023-05-07T08:31:57.513Z,1.10
2023-05-07T08:33:02.666Z,1.10
2023-05-07T08:34:09.578Z,0.88
2023-05-07T08:35:15.622Z,0.80
2023-05-07T08:36:20.281Z,0.90
2023-05-07T08:37:23.610Z,1.40
2023-05-07T08:38:26.865Z,1.15
2023-05-07T08:39:30.091Z,0.88
2023-05-07T08:40:39.484Z,1.20
2023-05-07T08:41:47.913Z,1.17
2023-05-07T08:42:54.031Z,1.00
2023-05-07T08:44:03.658Z,1.00
2023-05-07T08:45:12.709Z,0.90
2023-05-07T08:46:23.403Z,1.17
2023-05-07T08:47:41.284Z,0.75
2023-05-07T08:48:45.293Z,0.90
2023-05-07T08:49:52.325Z,0.80
2023-05-07T08:50:56.198Z,1.00
2023-05-07T08:52:00.189Z,0.80
2023-05-07T08:53:06.231Z,0.90
2023-05-07T08:54:12.480Z,1.00
2023-05-07T08:55:16.683Z,0.98
2023-05-07T08:56:22.638Z,0.95
2023-05-07T08:57:27.887Z,0.90
2023-05-07T08:58:31.464Z,1.10
2023-05-07T08:59:35.174Z,1.15
2023-05-07T09:00:41.369Z,1.33
2023-05-07T09:01:45.236Z,1.10
2023-05-07T09:02:49.128Z,0.75
2023-05-07T09:03:54.245Z,1.42
2023-05-07T09:04:58.604Z,1.02
2023-05-07T09:06:01.881Z,0.77
2023-05-07T09:07:06.659Z,1.40
2023-05-07T09:08:17.548Z,0.80
2023-05-07T09:09:23.806Z,0.90
2023-05-07T09:10:30.984Z,0.80
2023-05-07T09:11:34.954Z,0.82
2023-05-07T09:12:40.293Z,1.13
2023-05-07T09:13:46.184Z,0.90
2023-05-07T09:14:53.213Z,0.80
2023-05-07T09:15:57.042Z,0.85
2023-05-07T09:17:01.508Z,0.80
2023-05-07T09:18:05.424Z,0.82
2023-05-07T09:19:11.517Z,0.90
2023-05-07T09:20:19.637Z,0.80
2023-05-07T09:21:24.113Z,0.88
2023-05-07T09:22:32.349Z,0.80
2023-05-07T09:23:43.552Z,0.80
2023-05-07T09:24:52.085Z,0.90
2023-05-07T09:26:02.747Z,0.80
2023-05-07T09:27:11.664Z,0.88
2023-05-07T09:28:15.590Z,0.80
2023-05-07T09:29:19.495Z,1.00
2023-05-07T09:30:22.911Z,0.75
2023-05-07T09:31:27.210Z,0.90
2023-05-07T09:32:39.205Z,0.70
2023-05-07T09:33:44.361Z,0.70
2023-05-07T09:34:49.305Z,0.60
2023-05-07T09:35:56.072Z,0.60
2023-05-07T09:37:06.049Z,0.82
2023-05-07T09:38:09.595Z,0.60
2023-05-07T09:39:14.944Z,0.65
2023-05-07T09:40:30.758Z,0.80
2023-05-07T09:41:46.347Z,1.00
2023-05-07T09:43:13.838Z,0.68
2023-05-07T09:44:25.920Z,0.80
2023-05-07T09:45:32.930Z,0.73
2023-05-07T09:46:39.597Z,0.50
2023-05-07T09:47:58.313Z,0.90
2023-05-07T09:49:04.670Z,0.90
2023-05-07T09:50:16.400Z,0.60
2023-05-07T09:51:23.953Z,0.80
2023-05-07T09:52:34.397Z,0.90
2023-05-07T09:53:41.140Z,0.73
2023-05-07T09:54:46.215Z,0.60
2023-05-07T09:55:52.052Z,0.60
2023-05-07T09:56:57.183Z,0.77
2023-05-07T09:58:05.731Z,1.30
2023-05-07T09:59:11.435Z,0.57
2023-05-07T10:00:16.743Z,0.80
2023-05-07T10:01:33.435Z,0.65
2023-05-07T10:02:49.074Z,0.90
2023-05-07T10:03:56.060Z,0.82
2023-05-07T10:05:01.582Z,0.60
2023-05-07T10:06:11.649Z,0.60
2023-05-07T10:07:16.878Z,0.75
2023-05-07T10:08:21.044Z,0.63
2023-05-07T10:09:28.177Z,0.80
2023-05-07T10:10:34.657Z,0.68
2023-05-07T10:11:38.655Z,0.73
2023-05-07T10:12:42.891Z,0.52
2023-05-07T10:13:54.655Z,0.90
2023-05-07T10:14:58.566Z,0.60
2023-05-07T10:16:04.574Z,0.80
2023-05-07T10:17:18.964Z,1.17
2023-05-07T10:18:24.861Z,0.70
2023-05-07T10:19:32.143Z,0.63
2023-05-07T10:20:37.578Z,0.80
2023-05-07T10:21:59.495Z,0.50
2023-05-07T10:23:06.949Z,0.57
2023-05-07T10:24:32.650Z,0.70
2023-05-07T10:25:37.689Z,0.60
2023-05-07T10:26:53.653Z,0.95
2023-05-07T10:28:07.232Z,0.88
2023-05-07T10:29:59.514Z,0.75
2023-05-07T10:31:30.763Z,0.80
2023-05-07T10:32:42.296Z,0.77
2023-05-07T10:33:52.382Z,0.80
2023-05-07T10:35:06.047Z,0.70
2023-05-07T10:36:10.552Z,0.50
2023-05-07T10:37:14.842Z,0.90
2023-05-07T10:38:18.524Z,0.93
2023-05-07T10:39:24.220Z,0.80
2023-05-07T10:40:27.620Z,0.70
2023-05-07T10:41:31.802Z,0.70
2023-05-07T10:42:36.278Z,0.85
2023-05-07T10:43:44.765Z,0.80
2023-05-07T10:44:54.855Z,0.60
2023-05-07T10:46:18.686Z,0.80
2023-05-07T10:47:28.088Z,0.80
2023-05-07T10:48:35.958Z,0.90
2023-05-07T10:50:07.997Z,1.00
2023-05-07T10:52:37.309Z,1.10
2023-05-07T10:53:44.674Z,1.00
2023-05-07T10:55:22.594Z,0.90
2023-05-07T10:56:45.632Z,0.80
2023-05-07T10:57:56.539Z,1.13
2023-05-07T10:59:32.775Z,0.80
2023-05-07T11:00:50.336Z,1.15
2023-05-07T11:02:09.134Z,0.70
2023-05-07T11:03:23.442Z,0.80
2023-05-07T11:04:39.674Z,0.88
2023-05-07T11:06:11.214Z,0.85
2023-05-07T11:07:27.497Z,0.80
2023-05-07T11:08:59.236Z,1.20
2023-05-07T11:10:09.978Z,0.77
2023-05-07T11:11:56.902Z,1.10
2023-05-07T11:13:48.106Z,0.75
2023-05-07T11:15:14.207Z,0.90
2023-05-07T11:16:31.272Z,0.60
2023-05-07T11:17:58.564Z,0.85
2023-05-07T11:19:05.977Z,0.70
2023-05-07T11:20:18.708Z,0.90
2023-05-07T11:21:41.037Z,0.90
2023-05-07T11:23:00.751Z,1.23
2023-05-07T11:24:11.684Z,1.08
2023-05-07T11:25:26.449Z,1.20
2023-05-07T11:26:51.689Z,1.15
2023-05-07T11:27:58.960Z,0.80
2023-05-07T11:29:03.777Z,1.10
2023-05-07T11:30:08.198Z,1.17
2023-05-07T11:31:12.769Z,0.98
2023-05-07T11:32:24.898Z,1.02
2023-05-07T11:33:30.822Z,1.08
2023-05-07T11:34:34.956Z,0.88
2023-05-07T11:35:39.352Z,1.02
2023-05-07T11:36:48.599Z,0.75
2023-05-07T11:38:01.677Z,1.10
2023-05-07T11:39:23.832Z,0.82
2023-05-07T11:40:27.190Z,0.80
2023-05-07T11:41:38.420Z,0.77
2023-05-07T11:42:44.434Z,1.35
2023-05-07T11:43:59.696Z,1.20
2023-05-07T11:45:03.600Z,1.00
2023-05-07T11:46:12.121Z,1.00
2023-05-07T11:47:29.355Z,1.20
2023-05-07T11:48:33.515Z,1.02
2023-05-07T11:49:36.850Z,1.50
2023-05-07T11:51:01.197Z,1.05
2023-05-07T11:52:06.676Z,0.98
2023-05-07T11:53:14.087Z,1.23
2023-05-07T11:54:17.895Z,0.98
2023-05-07T11:55:21.250Z,1.20
2023-05-07T11:56:24.689Z,1.20
2023-05-07T11:57:29.664Z,1.20
2023-05-07T11:58:34.197Z,1.25
2023-05-07T11:59:41.456Z,1.10
2023-05-07T12:00:53.896Z,1.02
2023-05-07T12:02:00.708Z,1.33
2023-05-07T12:03:07.313Z,1.63
2023-05-07T12:04:10.893Z,1.20
2023-05-07T12:05:14.711Z,1.42
2023-05-07T12:06:19.967Z,1.10
2023-05-07T12:07:25.930Z,1.05
2023-05-07T12:08:29.149Z,0.98
2023-05-07T12:09:36.810Z,1.35
2023-05-07T12:10:43.547Z,1.60
2023-05-07T12:11:48.858Z,1.00
2023-05-07T12:12:52.245Z,1.23
2023-05-07T12:13:59.856Z,1.00
2023-05-07T12:15:04.404Z,1.10
2023-05-07T12:16:08.759Z,1.10
2023-05-07T12:17:14.530Z,1.20
2023-05-07T12:18:18.499Z,1.05
2023-05-07T12:19:22.532Z,1.05
2023-05-07T12:20:25.827Z,1.20
2023-05-07T12:21:30.976Z,1.10
2023-05-07T12:22:34.680Z,1.52
2023-05-07T12:23:39.538Z,0.93
2023-05-07T12:24:59.186Z,1.00
2023-05-07T12:26:04.422Z,1.08
2023-05-07T12:27:10.233Z,1.10
2023-05-07T12:28:20.620Z,1.10
2023-05-07T12:29:24.252Z,1.20
2023-05-07T12:30:27.431Z,1.10
2023-05-07T12:31:31.493Z,1.25
2023-05-07T12:32:39.098Z,1.40
2023-05-07T12:33:42.293Z,1.30
2023-05-07T12:34:46.599Z,1.50
2023-05-07T12:35:51.111Z,1.05
2023-05-07T12:36:55.045Z,1.13
2023-05-07T12:38:01.148Z,1.33
2023-05-07T12:39:07.493Z,1.17
2023-05-07T12:40:12.949Z,1.10
2023-05-07T12:41:17.542Z,1.33
2023-05-07T12:42:27.189Z,1.02
2023-05-07T12:43:31.225Z,1.20
2023-05-07T12:44:37.647Z,1.35
2023-05-07T12:45:42.510Z,1.27
2023-05-07T12:46:47.520Z,1.30
2023-05-07T12:47:51.023Z,1.20
2023-05-07T12:48:54.794Z,1.10
2023-05-07T12:49:57.901Z,0.95
2023-05-07T12:51:03.279Z,1.17
2023-05-07T12:52:07.349Z,1.30
2023-05-07T12:53:14.570Z,1.25
2023-05-07T12:54:33.915Z,0.98
2023-05-07T12:55:45.154Z,0.80
2023-05-07T12:56:52.382Z,1.23
2023-05-07T12:57:58.420Z,1.17
2023-05-07T12:59:02.962Z,1.00
2023-05-07T13:00:07.955Z,1.15
2023-05-07T13:01:16.554Z,0.80
2023-05-07T13:02:21.099Z,1.20
2023-05-07T13:03:30.404Z,1.05
2023-05-07T13:04:34.273Z,1.10
2023-05-07T13:05:37.860Z,1.23
2023-05-07T13:06:42.004Z,1.10
2023-05-07T13:07:57.652Z,0.95
2023-05-07T13:09:00.804Z,1.10
2023-05-07T13:10:05.436Z,1.02
2023-05-07T13:11:11.353Z,1.30
2023-05-07T13:12:14.891Z,1.00
2023-05-07T13:13:18.330Z,1.25
2023-05-07T13:14:21.988Z,1.10
2023-05-07T13:15:28.318Z,1.35
2023-05-07T13:16:32.196Z,1.30
2023-05-07T13:17:35.894Z,0.82
2023-05-07T13:18:47.977Z,0.90
2023-05-07T13:19:51.594Z,0.93
2023-05-07T13:20:55.486Z,1.20
2023-05-07T13:21:58.958Z,1.00
2023-05-07T13:23:05.961Z,1.33
2023-05-07T13:24:10.249Z,0.95
2023-05-07T13:25:13.778Z,1.10
2023-05-07T13:26:26.201Z,1.08
2023-05-07T13:27:31.911Z,1.42
2023-05-07T13:28:35.513Z,1.00
2023-05-07T13:29:38.757Z,1.17
2023-05-07T13:30:41.933Z,1.33
2023-05-07T13:31:45.320Z,1.17
2023-05-07T13:32:50.091Z,1.20
2023-05-07T13:33:54.068Z,1.25
2023-05-07T13:34:57.314Z,0.85
2023-05-07T13:36:01.774Z,1.13
2023-05-07T13:37:05.489Z,1.20
2023-05-07T13:38:10.906Z,1.10
2023-05-07T13:39:15.129Z,1.15
2023-05-07T13:40:18.865Z,1.40
2023-05-07T13:41:22.472Z,0.90
2023-05-07T13:42:26.062Z,1.00
2023-05-07T13:43:29.381Z,0.93
2023-05-07T13:44:32.421Z,1.25
2023-05-07T13:45:35.711Z,1.00
2023-05-07T13:46:39.025Z,1.02
2023-05-07T13:47:43.227Z,0.90
2023-05-07T13:48:46.408Z,0.90
2023-05-07T13:49:52.783Z,0.90
2023-05-07T13:51:06.793Z,0.82
2023-05-07T13:52:12.480Z,0.77
2023-05-07T13:53:19.011Z,1.25
2023-05-07T13:54:22.290Z,1.42
2023-05-07T13:55:26.862Z,1.02
2023-05-07T13:56:32.407Z,0.90
2023-05-07T13:57:35.790Z,1.30
2023-05-07T13:58:51.951Z,1.10
2023-05-07T14:00:02.436Z,1.52
2023-05-07T14:01:07.530Z,1.15
2023-05-07T14:02:11.075Z,0.98
2023-05-07T14:03:15.430Z,0.95
2023-05-07T14:04:19.025Z,1.17
2023-05-07T14:05:24.289Z,1.05
2023-05-07T14:06:32.313Z,1.05
2023-05-07T14:07:36.885Z,1.35
2023-05-07T14:08:40.979Z,0.93
2023-05-07T14:09:44.407Z,1.58
2023-05-07T14:10:47.979Z,1.20
2023-05-07T14:11:52.421Z,1.00
2023-05-07T14:12:56.626Z,0.85
2023-05-07T14:13:59.810Z,0.93
2023-05-07T14:15:04.598Z,1.05
2023-05-07T14:16:08.265Z,1.13
2023-05-07T14:17:11.745Z,1.15
2023-05-07T14:18:16.720Z,1.00
2023-05-07T14:19:19.826Z,1.13
2023-05-07T14:20:23.280Z,1.10
2023-05-07T14:21:28.608Z,1.13
2023-05-07T14:22:34.441Z,1.02
2023-05-07T14:23:37.630Z,1.30
2023-05-07T14:24:40.943Z,1.08
2023-05-07T14:25:44.647Z,1.10
2023-05-07T14:26:47.851Z,1.17
2023-05-07T14:27:51.623Z,0.90
2023-05-07T14:28:58.425Z,1.30
2023-05-07T14:31:11.009Z,1.15
2023-05-07T14:32:14.493Z,0.80
2023-05-07T14:33:18.750Z,0.98
2023-05-07T14:34:22.805Z,1.15
2023-05-07T14:35:26.506Z,0.93
2023-05-07T14:36:31.316Z,1.08
2023-05-07T14:37:35.002Z,1.00
2023-05-07T14:38:38.320Z,0.80
2023-05-07T14:39:42.328Z,0.80
2023-05-07T14:40:47.022Z,0.88
2023-05-07T14:41:50.447Z,0.90
2023-05-07T14:42:53.890Z,1.25
2023-05-07T14:43:57.038Z,0.80
2023-05-07T14:45:00.341Z,1.30
2023-05-07T14:46:04.703Z,1.10
2023-05-07T14:47:09.310Z,1.00
2023-05-07T14:48:16.313Z,0.80
2023-05-07T14:49:20.036Z,1.50
2023-05-07T14:50:23.568Z,1.02
2023-05-07T14:51:29.146Z,1.02